CheckWX is a tool to help pilots better visualize weather data.  It is not intended as a substitute for an official pre-flight weather briefing.

12:33:40 UTC

LPBJ TAF
Beja International Airport
Beja, Portugal
TAF LPBJ 221102Z 2212/2312 06008KT CAVOK BECMG 2218/2220 VRB02KT BECMG 2308/2310 08008KT

Mar-22@
12:00 UTC

Mar-22 @ 12:00 UTC

Mar-22@
18:00 UTC

Mar-22 @ 18:00 UTC

TAF LPBJ 221102Z 2212/2312 06008KT CAVOK
Wind
  • 060° at 8 KTS
Conditions
No significant weather
Cloud Levels
  • No significant clouds

Mar-22@
18:00 UTC

Mar-22 @ 18:00 UTC

Mar-23@
08:00 UTC

Mar-23 @ 08:00 UTC

BECMG 2218/2220 VRB02KT

Becoming

Becoming Conditions expected by Fri, Mar 22, 2019 @ 20:00 UTC

Wind
  • Variable at 2 KTS
Conditions
No significant weather
Cloud Levels
  • No significant clouds

Mar-23@
08:00 UTC

Mar-23 @ 08:00 UTC

Mar-23@
12:00 UTC

Mar-23 @ 12:00 UTC

BECMG 2308/2310 08008KT

Becoming

Becoming Conditions expected by Sat, Mar 23, 2019 @ 10:00 UTC

Wind
  • 080° at 8 KTS
Conditions
No significant weather
Cloud Levels
  • No significant clouds